Dumas, Arkansas
Current Conditions -  °F | °C
As of 9:53 PM on Thursday 20 Nov 2014 (Local Time) from KLLQ Reporting Station
Broken Clouds Broken Clouds  
Wind Chill: 50°   Ceiling: 5500
Heat Index: 50°   Visibility: 9mi
Dew Point: 47°   Wind: 3mph
Humidity: 89%   Direction: 90°E
Pressure: 30.19"   Gusts: NA
Location:  33.89°N, 91.49°W
Report Text: KLLQ 210353Z AUTO 09003KT 9SM BKN055 10/08 A3019 RMK AO2 SLP222 T01000083
Loading
Personal Weather Stations






























Interactive Weather Map New forecast layout! Learn more

10-Day Weather Forecast

Advertisements
Track Severe Weather on mobile